Time;durP1;ratioP1;P1;durP2;ratioP2;P2;SDS_P1;SDS_P2;PMS_P1;PMS_P2;Temp;Humidity;BMP_temperature;BMP_pressure;BME280_temperature;BME280_humidity;BME280_pressure;Samples;Min_cycle;Max_cycle;Signal;HPM_P1;HPM_P2
2023/07/03 00:00:06;;;;;;;41.35;7.03;;;17.60;99.90;;;;;;5130953;27;20129;-70
2023/07/03 00:02:32;;;;;;;45.05;7.80;;;17.60;99.90;;;;;;5131373;27;20456;-71
2023/07/03 00:04:58;;;;;;;54.67;7.90;;;17.60;99.90;;;;;;5129996;27;20099;-71
2023/07/03 00:07:24;;;;;;;45.05;7.65;;;17.50;99.90;;;;;;5131196;27;20424;-70
2023/07/03 00:09:49;;;;;;;48.83;7.55;;;17.50;99.90;;;;;;5129393;27;20075;-71
2023/07/03 00:12:15;;;;;;;45.13;7.97;;;17.50;99.90;;;;;;5127962;27;20066;-71
2023/07/03 00:14:41;;;;;;;51.90;7.75;;;17.40;99.90;;;;;;5129463;27;20025;-71
2023/07/03 00:17:07;;;;;;;43.28;7.35;;;17.40;99.90;;;;;;5130863;27;20740;-71
2023/07/03 00:19:33;;;;;;;40.40;7.15;;;17.40;99.90;;;;;;5129108;27;20023;-70
2023/07/03 00:22:00;;;;;;;53.70;8.35;;;17.40;99.90;;;;;;5130114;27;20023;-71
2023/07/03 00:24:27;;;;;;;42.72;7.10;;;17.40;99.90;;;;;;5128879;27;20073;-71
2023/07/03 00:26:53;;;;;;;44.00;7.72;;;17.40;99.90;;;;;;5130735;27;20330;-70
2023/07/03 00:29:19;;;;;;;50.28;8.38;;;17.30;99.90;;;;;;5128259;27;20019;-71
2023/07/03 00:31:44;;;;;;;51.70;7.63;;;17.30;99.90;;;;;;5122734;27;20034;-71
2023/07/03 00:34:10;;;;;;;50.72;8.15;;;17.20;99.90;;;;;;5129452;27;20415;-70
2023/07/03 00:36:36;;;;;;;52.38;8.25;;;17.20;99.90;;;;;;5130631;27;20034;-71
2023/07/03 00:39:01;;;;;;;41.13;7.90;;;17.20;99.90;;;;;;5105374;28;20094;-71
2023/07/03 00:41:27;;;;;;;46.80;7.30;;;17.30;99.90;;;;;;5128864;27;20033;-71
2023/07/03 00:43:53;;;;;;;48.95;8.00;;;17.30;99.90;;;;;;5130682;27;20012;-71
2023/07/03 00:46:19;;;;;;;49.35;7.72;;;17.30;99.90;;;;;;5130280;28;20038;-71
2023/07/03 00:48:45;;;;;;;41.70;7.30;;;17.30;99.90;;;;;;5129263;28;20483;-71
2023/07/03 00:51:14;;;;;;;45.90;7.53;;;17.30;99.90;;;;;;5114170;28;20058;-71
2023/07/03 00:53:40;;;;;;;41.13;7.68;;;17.40;99.90;;;;;;5129221;28;20019;-71
2023/07/03 00:56:06;;;;;;;41.00;7.68;;;17.40;99.90;;;;;;5131163;28;20500;-71
2023/07/03 00:58:32;;;;;;;36.75;6.25;;;17.40;99.90;;;;;;5127972;28;20100;-71
2023/07/03 01:01:01;;;;;;;39.90;7.07;;;17.40;99.90;;;;;;5130068;28;20022;-71
2023/07/03 01:03:37;;;;;;;41.97;6.60;;;17.50;99.90;;;;;;5121378;28;20046;-71
2023/07/03 01:06:06;;;;;;;39.45;6.50;;;17.50;99.90;;;;;;5112031;28;20475;-71
2023/07/03 01:08:33;;;;;;;42.72;6.53;;;17.50;99.90;;;;;;5125030;28;20515;-71
2023/07/03 01:10:59;;;;;;;34.70;6.03;;;17.50;99.90;;;;;;5129715;28;20402;-71
2023/07/03 01:13:28;;;;;;;36.17;6.90;;;17.60;99.90;;;;;;5128176;28;20024;-74
2023/07/03 01:15:55;;;;;;;36.28;6.10;;;17.60;99.90;;;;;;5129683;28;20630;-71
2023/07/03 01:18:22;;;;;;;34.17;6.18;;;17.60;99.90;;;;;;5121645;28;20038;-71
2023/07/03 01:20:58;;;;;;;26.95;5.28;;;17.70;99.90;;;;;;5129898;28;20538;-71
2023/07/03 01:23:36;;;;;;;33.03;5.40;;;17.70;99.90;;;;;;5127485;28;20059;-71
2023/07/03 01:26:04;;;;;;;30.10;5.13;;;17.70;99.90;;;;;;5119188;28;20027;-70
2023/07/03 01:28:32;;;;;;;34.97;5.97;;;17.70;99.90;;;;;;5126897;28;20047;-71
2023/07/03 01:30:59;;;;;;;23.67;4.82;;;17.70;99.90;;;;;;5128569;28;20019;-71
2023/07/03 01:33:30;;;;;;;27.13;5.13;;;17.70;99.90;;;;;;5128892;28;20112;-71
2023/07/03 01:35:58;;;;;;;30.75;5.53;;;17.70;99.90;;;;;;5121091;28;20035;-71
2023/07/03 01:38:25;;;;;;;25.10;5.68;;;17.80;99.90;;;;;;5125464;28;20020;-71
2023/07/03 01:40:53;;;;;;;25.05;4.90;;;17.70;99.90;;;;;;5111751;28;20027;-71
2023/07/03 01:43:19;;;;;;;29.38;4.90;;;17.80;99.90;;;;;;5132631;27;20047;-71
2023/07/03 01:45:47;;;;;;;21.02;3.83;;;17.80;99.90;;;;;;5134251;27;20061;-71
2023/07/03 01:48:14;;;;;;;21.45;3.80;;;17.70;99.90;;;;;;5134475;27;20502;-71
2023/07/03 01:50:41;;;;;;;16.00;3.75;;;17.80;99.90;;;;;;5134061;27;20051;-71
2023/07/03 01:53:14;;;;;;;18.83;4.03;;;17.70;99.90;;;;;;5134481;27;20080;-71
2023/07/03 01:55:51;;;;;;;21.63;3.75;;;17.70;99.90;;;;;;5133233;27;20027;-71
2023/07/03 01:58:41;;;;;;;19.42;3.10;;;17.70;99.90;;;;;;5126527;27;20016;-71
2023/07/03 02:01:11;;;;;;;16.10;2.92;;;17.70;99.90;;;;;;5131454;27;20024;-71
2023/07/03 02:04:00;;;;;;;16.05;2.90;;;17.70;99.90;;;;;;5133810;27;20652;-71
2023/07/03 02:06:34;;;;;;;19.83;2.95;;;17.60;99.90;;;;;;5133839;27;20327;-71
2023/07/03 02:09:01;;;;;;;15.90;2.65;;;17.60;99.90;;;;;;5132534;27;20371;-71
2023/07/03 02:11:28;;;;;;;13.20;3.00;;;17.60;99.90;;;;;;5133612;27;20027;-71
2023/07/03 02:13:55;;;;;;;12.32;2.67;;;17.60;99.90;;;;;;5124847;27;20022;-71
2023/07/03 02:16:20;;;;;;;15.68;3.10;;;17.60;99.90;;;;;;5109837;27;20053;-71
2023/07/03 02:18:46;;;;;;;14.48;2.90;;;17.60;99.90;;;;;;5121785;27;20132;-71
2023/07/03 02:21:13;;;;;;;12.02;2.75;;;17.60;99.90;;;;;;5133180;27;20023;-71
2023/07/03 02:23:40;;;;;;;10.30;1.92;;;17.60;99.90;;;;;;5127730;27;20110;-71
2023/07/03 02:26:05;;;;;;;8.65;2.22;;;17.60;99.90;;;;;;5132076;27;20101;-71
2023/07/03 02:28:31;;;;;;;13.07;2.47;;;17.50;99.90;;;;;;5133161;27;20102;-70
2023/07/03 02:30:56;;;;;;;9.15;2.08;;;17.50;99.90;;;;;;5132535;27;20086;-71
2023/07/03 02:33:22;;;;;;;9.75;2.42;;;17.50;99.90;;;;;;5125932;27;20110;-71
2023/07/03 02:35:48;;;;;;;7.38;1.88;;;17.50;99.90;;;;;;5132797;27;20023;-71
2023/07/03 02:38:15;;;;;;;10.00;1.98;;;17.50;99.90;;;;;;5132672;27;20023;-71
2023/07/03 02:40:41;;;;;;;7.75;2.25;;;17.50;99.90;;;;;;5133950;27;20023;-71
2023/07/03 02:43:08;;;;;;;9.55;2.00;;;17.50;99.90;;;;;;5132995;27;20011;-70
2023/07/03 02:45:42;;;;;;;9.35;2.30;;;17.50;99.90;;;;;;5127430;27;20370;-71
2023/07/03 02:48:09;;;;;;;10.53;2.07;;;17.50;99.90;;;;;;5123591;27;20026;-71
2023/07/03 02:50:35;;;;;;;9.65;2.08;;;17.50;99.90;;;;;;5129971;27;20071;-71
2023/07/03 02:53:01;;;;;;;9.45;2.10;;;17.50;99.90;;;;;;5132383;27;20569;-71
2023/07/03 02:55:27;;;;;;;9.30;2.22;;;17.50;99.90;;;;;;5130765;27;20338;-71
2023/07/03 02:57:57;;;;;;;6.93;2.20;;;17.50;99.90;;;;;;5113667;27;20108;-71
2023/07/03 03:00:23;;;;;;;11.63;2.63;;;17.50;99.90;;;;;;5131901;27;20450;-71
2023/07/03 03:02:49;;;;;;;12.88;2.45;;;17.50;99.90;;;;;;5132004;27;20015;-71
2023/07/03 03:05:15;;;;;;;9.75;2.20;;;17.40;99.90;;;;;;5130225;27;20533;-71
2023/07/03 03:07:40;;;;;;;13.23;2.50;;;17.40;99.90;;;;;;5129975;27;20102;-71
2023/07/03 03:10:07;;;;;;;11.55;2.15;;;17.40;99.90;;;;;;5131890;27;20042;-71
2023/07/03 03:12:33;;;;;;;13.80;2.58;;;17.30;99.90;;;;;;5132780;27;20397;-71
2023/07/03 03:14:59;;;;;;;15.77;2.42;;;17.40;99.90;;;;;;5131240;27;20028;-71
2023/07/03 03:17:24;;;;;;;13.63;2.38;;;17.40;99.90;;;;;;5131703;27;20016;-70
2023/07/03 03:19:50;;;;;;;11.02;2.03;;;17.30;99.90;;;;;;5132559;27;20026;-70
2023/07/03 03:22:16;;;;;;;12.13;2.20;;;17.30;99.90;;;;;;5132116;27;20042;-70
2023/07/03 03:24:41;;;;;;;10.77;2.13;;;17.30;99.90;;;;;;5130178;27;20553;-71
2023/07/03 03:27:07;;;;;;;10.90;2.05;;;17.30;99.90;;;;;;5129606;27;20015;-71
2023/07/03 03:29:34;;;;;;;11.75;2.35;;;17.30;99.90;;;;;;5130413;27;20035;-71
2023/07/03 03:31:59;;;;;;;13.32;2.50;;;17.30;99.90;;;;;;5131672;27;20106;-71
2023/07/03 03:34:25;;;;;;;12.75;2.15;;;17.20;99.90;;;;;;5131142;27;20098;-71
2023/07/03 03:36:51;;;;;;;12.55;2.25;;;17.20;99.90;;;;;;5130804;27;20027;-71
2023/07/03 03:39:17;;;;;;;11.82;2.42;;;17.20;99.90;;;;;;5130682;27;20023;-71
2023/07/03 03:41:42;;;;;;;10.73;2.70;;;17.20;99.90;;;;;;5110160;27;20061;-71
2023/07/03 03:44:08;;;;;;;10.35;2.60;;;17.20;99.90;;;;;;5128721;27;20011;-71
2023/07/03 03:46:34;;;;;;;13.32;2.35;;;17.10;99.90;;;;;;5124094;27;20490;-71
2023/07/03 03:49:00;;;;;;;17.52;2.08;;;17.10;99.90;;;;;;5111411;27;20076;-71
2023/07/03 03:51:26;;;;;;;10.40;2.60;;;17.10;99.90;;;;;;5112811;27;20078;-71
2023/07/03 03:53:52;;;;;;;12.63;2.50;;;17.00;99.90;;;;;;5111512;27;20069;-70
2023/07/03 03:56:19;;;;;;;12.82;2.25;;;17.00;99.90;;;;;;5131884;27;20104;-71
2023/07/03 03:58:46;;;;;;;6.03;2.15;;;17.00;99.90;;;;;;5131690;27;20084;-70
2023/07/03 04:01:12;;;;;;;11.77;2.53;;;16.90;99.90;;;;;;5129818;27;20035;-71
2023/07/03 04:03:38;;;;;;;16.13;2.95;;;16.90;99.90;;;;;;5122604;27;20071;-71
2023/07/03 04:06:03;;;;;;;16.83;2.58;;;16.90;99.90;;;;;;5130517;27;20027;-71
2023/07/03 04:08:29;;;;;;;17.27;2.80;;;16.90;99.90;;;;;;5130405;27;20027;-70
2023/07/03 04:10:55;;;;;;;19.67;3.08;;;16.90;99.90;;;;;;5130448;27;20019;-71
2023/07/03 04:13:20;;;;;;;12.15;2.28;;;16.90;99.90;;;;;;5128707;27;20483;-71
2023/07/03 04:15:51;;;;;;;16.92;2.85;;;16.90;99.90;;;;;;5130235;27;20026;-71
2023/07/03 04:18:21;;;;;;;17.10;2.60;;;16.90;99.90;;;;;;5131550;27;20073;-71
2023/07/03 04:20:48;;;;;;;13.27;2.10;;;16.90;99.90;;;;;;5131458;27;20027;-71
2023/07/03 04:23:14;;;;;;;14.30;2.97;;;16.90;99.90;;;;;;5131043;27;20016;-71
2023/07/03 04:25:42;;;;;;;16.52;2.72;;;17.00;99.90;;;;;;5131465;27;20019;-71
2023/07/03 04:28:08;;;;;;;10.23;2.10;;;17.00;99.90;;;;;;5130231;27;20083;-71
2023/07/03 04:30:34;;;;;;;13.85;2.65;;;17.00;99.90;;;;;;5112509;27;20045;-71
2023/07/03 04:32:59;;;;;;;10.05;2.33;;;17.00;99.90;;;;;;5126729;27;20476;-71
2023/07/03 04:35:25;;;;;;;13.30;2.67;;;17.00;99.90;;;;;;5130807;27;20152;-71
2023/07/03 04:37:51;;;;;;;12.98;2.38;;;17.00;99.90;;;;;;5131674;27;20019;-71
2023/07/03 04:40:17;;;;;;;14.02;2.17;;;17.00;99.90;;;;;;5111607;28;20023;-71
2023/07/03 04:42:43;;;;;;;14.73;2.90;;;17.00;99.90;;;;;;5130506;27;20026;-71
2023/07/03 04:45:09;;;;;;;16.05;2.60;;;17.00;99.90;;;;;;5131248;27;20463;-71
2023/07/03 04:47:38;;;;;;;17.48;2.50;;;17.00;99.90;;;;;;5131140;28;20023;-71
2023/07/03 04:50:08;;;;;;;12.38;2.50;;;17.00;99.90;;;;;;5130684;28;20463;-71
2023/07/03 04:52:36;;;;;;;14.27;2.40;;;17.10;99.90;;;;;;5123677;28;20392;-71
2023/07/03 04:55:02;;;;;;;10.23;2.58;;;17.10;99.90;;;;;;5131145;28;20084;-71
2023/07/03 04:57:28;;;;;;;14.20;2.40;;;17.10;99.90;;;;;;5131204;28;20042;-71
2023/07/03 04:59:57;;;;;;;9.77;2.50;;;17.10;99.90;;;;;;5115266;28;20023;-71
2023/07/03 05:02:23;;;;;;;12.18;2.25;;;17.20;99.90;;;;;;5131026;28;20110;-71
2023/07/03 05:04:49;;;;;;;16.17;2.92;;;17.20;99.90;;;;;;5130988;28;20015;-71
2023/07/03 05:07:19;;;;;;;21.40;2.80;;;17.20;99.90;;;;;;5130936;28;20026;-71
2023/07/03 05:09:45;;;;;;;15.00;2.80;;;17.20;99.90;;;;;;5131131;28;20052;-71
2023/07/03 05:12:11;;;;;;;14.93;2.70;;;17.20;99.90;;;;;;5130654;28;20020;-71
2023/07/03 05:14:37;;;;;;;15.10;2.50;;;17.30;99.90;;;;;;5129386;28;20034;-71
2023/07/03 05:17:03;;;;;;;13.77;2.75;;;17.30;99.90;;;;;;5132875;27;20019;-71
2023/07/03 05:19:29;;;;;;;18.17;2.95;;;17.30;99.90;;;;;;5133622;27;20023;-71
2023/07/03 05:21:54;;;;;;;12.85;2.40;;;17.40;99.90;;;;;;5134789;27;20038;-71
2023/07/03 05:24:20;;;;;;;13.88;2.60;;;17.40;99.90;;;;;;5134106;27;20378;-71
2023/07/03 05:26:45;;;;;;;11.20;2.33;;;17.40;99.90;;;;;;5126489;27;20019;-71
2023/07/03 05:29:11;;;;;;;11.23;2.40;;;17.30;99.90;;;;;;5132562;27;20432;-71
2023/07/03 05:31:37;;;;;;;14.40;2.47;;;17.40;99.90;;;;;;5133994;27;20965;-71
2023/07/03 05:34:02;;;;;;;17.95;3.00;;;17.40;99.90;;;;;;5134278;27;20412;-71
2023/07/03 05:36:30;;;;;;;14.55;2.53;;;17.40;99.90;;;;;;5131005;27;20027;-71
2023/07/03 05:38:55;;;;;;;14.57;2.50;;;17.40;99.90;;;;;;5134664;27;20022;-71
2023/07/03 05:41:22;;;;;;;13.82;2.72;;;17.50;99.90;;;;;;5134239;27;20023;-71
2023/07/03 05:43:48;;;;;;;14.23;2.58;;;17.40;99.90;;;;;;5134888;27;20427;-71
2023/07/03 05:46:14;;;;;;;20.13;2.70;;;17.50;99.90;;;;;;5134414;27;20015;-71
2023/07/03 05:48:39;;;;;;;17.15;2.45;;;17.50;99.90;;;;;;5134572;27;20043;-71
2023/07/03 05:51:05;;;;;;;17.08;2.72;;;17.50;99.90;;;;;;5134008;27;20490;-71
2023/07/03 05:53:31;;;;;;;10.82;1.98;;;17.60;99.90;;;;;;5134184;27;20024;-71
2023/07/03 05:55:57;;;;;;;13.10;2.78;;;17.60;99.90;;;;;;5134299;27;20015;-71
2023/07/03 05:58:25;;;;;;;13.65;2.53;;;17.60;99.90;;;;;;5132467;27;20023;-71
2023/07/03 06:00:51;;;;;;;15.65;2.85;;;17.60;99.90;;;;;;5132566;27;20026;-71
2023/07/03 06:03:18;;;;;;;19.30;2.75;;;17.60;99.90;;;;;;5134732;27;20110;-71
2023/07/03 06:05:44;;;;;;;13.30;2.55;;;17.60;99.90;;;;;;5133822;27;20492;-71
2023/07/03 06:08:11;;;;;;;11.05;2.55;;;17.60;99.90;;;;;;5134109;27;20019;-71
2023/07/03 06:10:38;;;;;;;11.55;2.65;;;17.70;99.90;;;;;;5120735;27;20030;-71
2023/07/03 06:13:04;;;;;;;15.20;2.78;;;17.70;99.90;;;;;;5134207;27;20047;-71
2023/07/03 06:15:30;;;;;;;13.50;2.60;;;17.80;99.90;;;;;;5134353;27;20015;-71
2023/07/03 06:17:56;;;;;;;15.65;2.65;;;17.80;99.90;;;;;;5133682;27;20027;-71
2023/07/03 06:20:22;;;;;;;15.60;2.70;;;17.80;99.90;;;;;;5133759;27;20030;-71
2023/07/03 06:22:48;;;;;;;13.93;2.67;;;17.70;99.90;;;;;;5134031;27;20047;-71
2023/07/03 06:25:13;;;;;;;12.75;2.50;;;17.70;99.90;;;;;;5133638;27;20474;-71
2023/07/03 06:27:39;;;;;;;14.90;2.65;;;17.80;99.90;;;;;;5115210;27;20387;-71
2023/07/03 06:30:06;;;;;;;13.45;2.42;;;17.90;99.90;;;;;;5133083;27;20431;-71
2023/07/03 06:32:31;;;;;;;16.92;2.90;;;17.90;99.90;;;;;;5133295;27;20088;-71
2023/07/03 06:34:57;;;;;;;13.95;2.88;;;17.90;99.90;;;;;;5133471;27;20035;-71
2023/07/03 06:37:23;;;;;;;12.75;2.80;;;17.90;99.90;;;;;;5133703;27;20114;-71
2023/07/03 06:39:48;;;;;;;18.20;2.90;;;18.00;99.90;;;;;;5133603;27;20429;-71
2023/07/03 06:42:14;;;;;;;11.10;2.20;;;18.10;99.90;;;;;;5127581;27;20023;-71
2023/07/03 06:44:40;;;;;;;17.80;2.75;;;18.10;99.90;;;;;;5105607;27;20067;-71
2023/07/03 06:47:06;;;;;;;16.15;3.05;;;18.20;99.90;;;;;;5132841;27;20435;-71
2023/07/03 06:49:32;;;;;;;13.32;2.92;;;18.30;99.90;;;;;;5133064;27;20059;-71
2023/07/03 06:51:58;;;;;;;17.55;2.85;;;18.50;99.90;;;;;;5133261;27;20023;-71
2023/07/03 06:54:24;;;;;;;12.55;2.55;;;18.60;99.90;;;;;;5133157;27;20068;-71
2023/07/03 06:56:49;;;;;;;15.73;2.42;;;18.70;99.90;;;;;;5133199;27;20506;-71
2023/07/03 06:59:15;;;;;;;15.88;3.05;;;18.80;99.90;;;;;;5119722;27;20062;-71
2023/07/03 07:01:41;;;;;;;12.30;2.75;;;18.80;99.90;;;;;;5132713;27;20034;-71
2023/07/03 07:04:06;;;;;;;15.38;2.45;;;18.90;99.90;;;;;;5106785;27;20055;-71
2023/07/03 07:06:32;;;;;;;12.45;2.53;;;18.90;99.90;;;;;;5132805;27;20027;-71
2023/07/03 07:08:59;;;;;;;17.40;2.58;;;18.90;99.90;;;;;;5132881;27;20493;-71
2023/07/03 07:11:28;;;;;;;13.75;2.58;;;18.90;99.90;;;;;;5132537;27;20027;-71
2023/07/03 07:13:55;;;;;;;20.30;3.08;;;18.90;99.90;;;;;;5130605;27;20024;-71
2023/07/03 07:16:34;;;;;;;13.07;2.53;;;18.80;99.90;;;;;;5132378;27;20391;-71
2023/07/03 07:19:01;;;;;;;20.85;3.08;;;18.80;99.90;;;;;;5132641;27;20026;-71
2023/07/03 07:21:30;;;;;;;14.23;2.38;;;18.80;99.90;;;;;;5132279;27;20043;-71
2023/07/03 07:23:58;;;;;;;9.48;2.30;;;18.80;99.90;;;;;;5132993;27;20015;-71
2023/07/03 07:26:27;;;;;;;12.25;2.10;;;19.00;99.90;;;;;;5114014;27;20378;-71
2023/07/03 07:28:54;;;;;;;9.32;2.00;;;19.10;99.90;;;;;;5132771;27;20069;-72
2023/07/03 07:31:21;;;;;;;11.55;2.38;;;19.20;99.90;;;;;;5113854;27;20483;-71
2023/07/03 07:33:47;;;;;;;8.70;2.00;;;19.20;99.90;;;;;;5132323;27;20102;-71
2023/07/03 07:36:14;;;;;;;14.32;2.20;;;19.10;99.60;;;;;;5132444;27;20141;-70
2023/07/03 07:38:41;;;;;;;13.20;2.45;;;19.00;99.20;;;;;;5132242;27;20011;-70
2023/07/03 07:41:07;;;;;;;13.20;2.42;;;19.10;99.30;;;;;;5131163;27;20026;-70
2023/07/03 07:43:32;;;;;;;12.48;2.10;;;19.20;99.40;;;;;;5132026;27;20024;-70
2023/07/03 07:45:58;;;;;;;12.52;2.50;;;19.20;99.60;;;;;;5132286;27;20015;-70
2023/07/03 07:48:25;;;;;;;10.07;2.30;;;19.20;99.90;;;;;;5132132;27;20098;-70
2023/07/03 07:50:51;;;;;;;16.85;2.80;;;19.30;99.90;;;;;;5131448;27;20046;-70
2023/07/03 07:53:16;;;;;;;13.15;2.47;;;19.20;99.90;;;;;;5132024;27;20027;-70
2023/07/03 07:55:42;;;;;;;14.68;2.58;;;19.10;99.90;;;;;;5131929;27;20481;-70
2023/07/03 07:58:08;;;;;;;12.27;2.20;;;19.10;99.90;;;;;;5131855;27;20062;-70
2023/07/03 08:00:34;;;;;;;16.20;2.28;;;19.00;99.90;;;;;;5131733;27;20026;-70
2023/07/03 08:03:00;;;;;;;11.52;2.40;;;18.90;99.90;;;;;;5132050;27;20011;-70
2023/07/03 08:05:25;;;;;;;15.77;2.63;;;18.90;99.90;;;;;;5131557;27;20026;-70
2023/07/03 08:07:52;;;;;;;13.63;2.28;;;18.90;99.90;;;;;;5131534;27;20090;-70
2023/07/03 08:10:19;;;;;;;14.75;2.55;;;18.90;99.90;;;;;;5131336;27;20475;-70
2023/07/03 08:12:45;;;;;;;11.82;2.40;;;18.90;99.90;;;;;;5131449;27;20031;-70
2023/07/03 08:15:11;;;;;;;9.93;2.17;;;18.80;99.90;;;;;;5131864;27;20023;-69
2023/07/03 08:17:37;;;;;;;10.38;2.33;;;18.80;99.90;;;;;;5131533;27;20053;-70
2023/07/03 08:20:09;;;;;;;12.82;2.38;;;18.80;99.90;;;;;;5131580;27;20068;-70
2023/07/03 08:22:35;;;;;;;14.85;2.17;;;18.80;99.90;;;;;;5131396;27;20037;-70
2023/07/03 08:25:00;;;;;;;12.55;2.33;;;18.90;99.90;;;;;;5131646;27;20098;-70
2023/07/03 08:27:26;;;;;;;15.93;2.20;;;18.90;99.90;;;;;;5131245;27;20034;-70
2023/07/03 08:29:51;;;;;;;15.43;2.60;;;18.90;99.90;;;;;;5131001;27;20482;-70
2023/07/03 08:32:17;;;;;;;14.10;2.60;;;18.90;99.90;;;;;;5131431;27;20055;-70
2023/07/03 08:34:43;;;;;;;14.10;2.53;;;18.90;99.90;;;;;;5131124;27;20023;-70
2023/07/03 08:37:08;;;;;;;12.57;2.80;;;18.80;99.90;;;;;;5131976;27;20065;-70
2023/07/03 08:39:38;;;;;;;13.57;2.70;;;18.90;99.90;;;;;;5124245;27;20436;-70
2023/07/03 08:42:18;;;;;;;14.32;2.70;;;18.90;99.90;;;;;;5131357;27;20486;-70
2023/07/03 08:44:43;;;;;;;15.68;2.95;;;18.90;99.90;;;;;;5122376;27;20023;-70
2023/07/03 08:47:15;;;;;;;12.80;2.58;;;19.00;99.90;;;;;;5131051;27;20065;-70
2023/07/03 08:49:43;;;;;;;15.82;2.60;;;18.90;99.90;;;;;;5131072;28;20066;-70
2023/07/03 08:52:09;;;;;;;16.40;2.90;;;18.90;99.90;;;;;;5131049;27;20030;-70
2023/07/03 08:54:37;;;;;;;12.27;2.80;;;18.90;99.90;;;;;;5131210;28;20095;-70
2023/07/03 08:57:04;;;;;;;17.10;3.03;;;18.90;99.90;;;;;;5130898;28;20011;-70
2023/07/03 08:59:30;;;;;;;14.57;2.65;;;18.80;99.90;;;;;;5131475;28;20106;-70
2023/07/03 09:02:21;;;;;;;14.30;2.88;;;18.80;99.90;;;;;;5131053;28;20087;-70
2023/07/03 09:05:08;;;;;;;17.48;3.10;;;18.80;99.90;;;;;;5125066;28;20030;-70
2023/07/03 09:07:46;;;;;;;17.02;3.10;;;18.80;99.90;;;;;;5131174;28;20463;-70
2023/07/03 09:10:15;;;;;;;18.05;3.50;;;18.80;99.90;;;;;;5125704;28;20129;-70
2023/07/03 09:13:00;;;;;;;19.70;3.63;;;18.80;99.90;;;;;;5128604;28;20406;-70
2023/07/03 09:15:42;;;;;;;11.57;2.90;;;18.90;99.90;;;;;;5123076;28;20031;-70
2023/07/03 09:18:16;;;;;;;15.00;3.13;;;18.90;99.90;;;;;;5108974;28;20399;-70
2023/07/03 09:20:42;;;;;;;14.32;3.10;;;19.00;99.90;;;;;;5124496;28;20027;-70
2023/07/03 09:23:27;;;;;;;15.00;2.67;;;19.00;99.90;;;;;;5111987;28;20036;-70
2023/07/03 09:26:01;;;;;;;15.10;2.90;;;19.00;99.90;;;;;;5131127;28;20070;-70
2023/07/03 09:28:28;;;;;;;16.38;2.92;;;19.00;99.90;;;;;;5119054;28;20027;-70
2023/07/03 09:30:54;;;;;;;23.58;3.00;;;18.90;99.90;;;;;;5130798;28;20110;-70
2023/07/03 09:33:20;;;;;;;15.05;3.10;;;18.90;99.90;;;;;;5126274;28;20485;-70
2023/07/03 09:35:47;;;;;;;17.40;3.15;;;18.80;99.90;;;;;;5130539;28;20027;-70
2023/07/03 09:38:17;;;;;;;17.42;3.00;;;18.90;99.90;;;;;;5130529;28;20546;-70
2023/07/03 09:40:47;;;;;;;17.83;3.20;;;19.00;99.90;;;;;;5123865;28;20523;-70
2023/07/03 09:43:20;;;;;;;14.80;3.10;;;19.10;99.90;;;;;;5130809;28;20023;-70
2023/07/03 09:45:46;;;;;;;14.32;2.90;;;19.10;99.90;;;;;;5130585;28;20019;-70
2023/07/03 09:48:32;;;;;;;15.95;2.67;;;19.10;99.90;;;;;;5130810;28;20019;-70
2023/07/03 09:50:58;;;;;;;17.63;3.05;;;19.20;99.90;;;;;;5130514;28;20079;-70
2023/07/03 09:53:26;;;;;;;15.90;3.28;;;19.20;99.90;;;;;;5131537;28;20369;-70
2023/07/03 09:56:02;;;;;;;16.88;3.25;;;19.20;99.90;;;;;;5130528;28;20038;-70
2023/07/03 09:58:29;;;;;;;16.25;3.25;;;19.30;99.90;;;;;;5130509;28;20051;-70
2023/07/03 10:00:57;;;;;;;15.68;3.05;;;19.30;99.90;;;;;;5130357;28;20027;-70
2023/07/03 10:03:30;;;;;;;14.77;2.45;;;19.30;99.90;;;;;;5130900;27;20019;-70
2023/07/03 10:06:03;;;;;;;13.57;2.95;;;19.20;99.90;;;;;;5134031;27;20104;-70
2023/07/03 10:08:29;;;;;;;17.20;3.22;;;19.20;99.90;;;;;;5130590;27;20547;-70
2023/07/03 10:10:59;;;;;;;14.75;2.60;;;19.20;99.90;;;;;;5134012;27;20557;-70
2023/07/03 10:13:35;;;;;;;16.48;2.92;;;19.30;99.90;;;;;;5134016;27;20038;-70
2023/07/03 10:16:03;;;;;;;15.00;2.47;;;19.30;99.90;;;;;;5133628;27;20475;-70
2023/07/03 10:18:35;;;;;;;19.05;3.35;;;19.30;99.90;;;;;;5133393;27;20147;-70
2023/07/03 10:21:03;;;;;;;20.40;3.88;;;19.30;99.90;;;;;;5133127;27;20039;-70
2023/07/03 10:23:34;;;;;;;14.25;2.95;;;19.30;99.90;;;;;;5133952;27;20021;-70
2023/07/03 10:26:05;;;;;;;22.20;3.15;;;19.30;99.90;;;;;;5133058;27;20075;-70
2023/07/03 10:28:39;;;;;;;20.05;3.22;;;19.30;99.90;;;;;;5133573;27;20026;-70
2023/07/03 10:31:09;;;;;;;17.35;2.72;;;19.30;99.90;;;;;;5133748;27;20366;-70
2023/07/03 10:33:59;;;;;;;14.57;3.03;;;19.30;99.90;;;;;;5133441;27;20030;-70
2023/07/03 10:36:27;;;;;;;11.23;2.92;;;19.30;99.90;;;;;;5123491;27;20055;-76
2023/07/03 10:39:14;;;;;;;14.63;2.67;;;19.30;99.90;;;;;;5133923;27;20015;-71
2023/07/03 10:41:49;;;;;;;14.02;2.60;;;19.30;99.90;;;;;;5134279;27;20400;-70
2023/07/03 10:44:22;;;;;;;18.25;3.22;;;19.20;99.90;;;;;;5115574;27;20402;-70
2023/07/03 10:46:53;;;;;;;14.30;2.88;;;19.10;99.90;;;;;;5132507;27;20019;-75
2023/07/03 10:49:28;;;;;;;11.38;2.53;;;19.00;99.90;;;;;;5119898;27;20023;-70
2023/07/03 10:52:18;;;;;;;15.97;2.67;;;19.20;99.90;;;;;;5132607;27;20392;-70
2023/07/03 10:54:46;;;;;;;14.68;2.53;;;19.30;99.90;;;;;;5133004;27;20034;-70
2023/07/03 10:57:18;;;;;;;14.13;2.55;;;19.50;99.90;;;;;;5131866;27;20475;-72
2023/07/03 10:59:50;;;;;;;11.55;1.92;;;19.70;99.90;;;;;;5132830;27;20031;-72
2023/07/03 11:02:47;;;;;;;11.73;2.15;;;19.80;99.80;;;;;;5133250;27;20038;-72
2023/07/03 11:05:26;;;;;;;14.93;2.40;;;19.90;98.70;;;;;;5132112;27;20104;-71
2023/07/03 11:08:11;;;;;;;12.68;2.42;;;19.80;98.40;;;;;;5121962;27;20078;-71
2023/07/03 11:11:05;;;;;;;14.90;2.00;;;19.80;98.30;;;;;;5121848;27;20088;-70
2023/07/03 11:13:37;;;;;;;14.85;2.38;;;19.80;98.00;;;;;;5132426;27;20019;-71
2023/07/03 11:16:14;;;;;;;15.75;2.90;;;19.80;98.40;;;;;;5132851;27;20019;-71
2023/07/03 11:19:03;;;;;;;12.38;2.25;;;19.90;97.90;;;;;;5114859;27;20386;-71
2023/07/03 11:21:58;;;;;;;10.93;1.90;;;20.10;96.80;;;;;;5107768;27;20397;-71
2023/07/03 11:24:36;;;;;;;9.40;1.77;;;20.10;95.80;;;;;;5111116;28;20480;-71
2023/07/03 11:27:26;;;;;;;14.05;2.10;;;20.10;95.50;;;;;;5132675;27;20027;-71
2023/07/03 11:29:53;;;;;;;10.82;1.90;;;20.10;95.90;;;;;;5127770;27;20031;-70
2023/07/03 11:32:19;;;;;;;7.68;1.70;;;20.00;95.90;;;;;;5132072;27;20015;-71
2023/07/03 11:34:47;;;;;;;10.38;1.90;;;20.00;95.00;;;;;;5131251;27;20110;-71
2023/07/03 11:37:40;;;;;;;11.57;1.80;;;19.90;95.20;;;;;;5131829;27;20015;-71
2023/07/03 11:40:24;;;;;;;8.68;1.80;;;19.90;95.00;;;;;;5129757;27;20027;-71
2023/07/03 11:43:14;;;;;;;10.77;1.95;;;19.80;94.40;;;;;;5122315;27;20026;-71
2023/07/03 11:46:08;;;;;;;15.27;2.10;;;19.90;94.90;;;;;;5107690;27;20031;-71
2023/07/03 11:48:37;;;;;;;8.75;1.92;;;19.90;94.70;;;;;;5125043;27;20039;-71
2023/07/03 11:51:14;;;;;;;14.43;1.92;;;19.90;94.30;;;;;;5124346;27;20051;-71
2023/07/03 11:53:48;;;;;;;19.83;2.28;;;19.80;94.20;;;;;;5133560;27;20027;-70
2023/07/03 11:56:32;;;;;;;11.57;1.90;;;19.70;94.70;;;;;;5127938;27;20019;-71
2023/07/03 11:59:25;;;;;;;12.00;2.13;;;19.70;94.20;;;;;;5130831;27;20548;-71
2023/07/03 12:02:10;;;;;;;10.27;1.70;;;19.80;94.40;;;;;;5132294;27;20020;-71
2023/07/03 12:04:45;;;;;;;9.07;1.80;;;20.00;93.30;;;;;;5065769;27;20028;-71
2023/07/03 12:07:21;;;;;;;8.88;1.58;;;20.10;93.00;;;;;;5111356;27;20460;-71
2023/07/03 12:09:49;;;;;;;12.57;1.77;;;20.20;92.70;;;;;;5130305;27;20470;-71
2023/07/03 12:12:24;;;;;;;11.52;1.90;;;20.10;93.00;;;;;;5131580;27;20011;-71
2023/07/03 12:14:53;;;;;;;9.57;1.90;;;20.00;93.30;;;;;;5128512;27;20020;-71
2023/07/03 12:17:25;;;;;;;16.55;2.28;;;20.00;93.50;;;;;;5127273;27;20605;-71
2023/07/03 12:20:06;;;;;;;13.68;1.80;;;20.00;93.00;;;;;;5108620;27;20505;-71
2023/07/03 12:22:45;;;;;;;17.27;2.05;;;20.10;91.90;;;;;;5129031;27;20072;-71
2023/07/03 12:25:17;;;;;;;27.90;2.50;;;20.20;90.70;;;;;;5131732;27;20023;-71
2023/07/03 12:27:44;;;;;;;14.07;1.95;;;20.40;89.50;;;;;;5129538;27;20059;-70
2023/07/03 12:30:12;;;;;;;6.88;1.67;;;20.30;89.70;;;;;;5131253;27;20027;-70
2023/07/03 12:32:38;;;;;;;12.30;1.65;;;20.30;89.80;;;;;;5130276;27;20371;-70
2023/07/03 12:35:18;;;;;;;10.45;1.75;;;20.20;88.10;;;;;;5130961;27;20015;-70
2023/07/03 12:37:49;;;;;;;11.88;1.83;;;20.00;89.20;;;;;;5131046;27;20031;-71
2023/07/03 12:40:17;;;;;;;12.27;1.85;;;19.70;90.20;;;;;;5131486;27;20415;-70
2023/07/03 12:42:52;;;;;;;12.07;1.85;;;19.50;91.10;;;;;;5131204;27;20019;-71
2023/07/03 12:45:24;;;;;;;15.13;2.20;;;19.50;92.40;;;;;;5131265;27;20424;-70
2023/07/03 12:48:11;;;;;;;18.13;2.28;;;19.30;92.60;;;;;;5131295;27;20027;-71